<?xml version="1.0" encoding="UTF-8" standalone="no" ?><gpx xmlns="http://www.topografix.com/GPX/1/1" xmlns:gpxx="http://www.garmin.com/xmlschemas/GpxExtensions/v3" xmlns:wptx1="http://www.garmin.com/xmlschemas/WaypointExtension/v1" xmlns:gpxtpx="http://www.garmin.com/xmlschemas/TrackPointExtension/v1" creator="Dakota 20" version="1.1" xmlns:xsi="http://www.w3.org/2001/XMLSchema-instance" xsi:schemaLocation="http://www.topografix.com/GPX/1/1 http://www.topografix.com/GPX/1/1/gpx.xsd http://www.garmin.com/xmlschemas/GpxExtensions/v3 http://www8.garmin.com/xmlschemas/GpxExtensionsv3.xsd http://www.garmin.com/xmlschemas/WaypointExtension/v1 http://www8.garmin.com/xmlschemas/WaypointExtensionv1.xsd http://www.garmin.com/xmlschemas/TrackPointExtension/v1 http://www.garmin.com/xmlschemas/TrackPointExtensionv1.xsd"><metadata><link href="http://www.garmin.com"><text>Garmin International</text></link><time>2012-01-11T18:08:05Z</time></metadata><trk><name>Current Track: 11 JAN 2012 09:57</name><extensions><gpxx:TrackExtension><gpxx:DisplayColor>Black</gpxx:DisplayColor></gpxx:TrackExtension></extensions><trkseg><trkpt lat="51.9655710831" lon="-2.0610037073"><ele>38.59</ele><time>2012-01-11T09:57:41Z</time></trkpt><trkpt lat="51.9655710831" lon="-2.0610037073"><ele>39.55</ele><time>2012-01-11T09:57:42Z</time></trkpt><trkpt lat="51.9655710831" lon="-2.0610037073"><ele>40.51</ele><time>2012-01-11T09:57:44Z</time></trkpt><trkpt lat="51.9655865058" lon="-2.0610138495"><ele>40.99</ele><time>2012-01-11T09:58:01Z</time></trkpt><trkpt lat="51.9656694029" lon="-2.0609998517"><ele>40.51</ele><time>2012-01-11T09:58:14Z</time></trkpt><trkpt lat="51.9657767750" lon="-2.0608867798"><ele>40.03</ele><time>2012-01-11T09:58:27Z</time></trkpt><trkpt lat="51.9657913595" lon="-2.0608016197"><ele>40.51</ele><time>2012-01-11T09:58:32Z</time></trkpt><trkpt lat="51.9657719135" lon="-2.0606784895"><ele>40.51</ele><time>2012-01-11T09:58:39Z</time></trkpt><trkpt lat="51.9655974023" lon="-2.0605729613"><ele>40.99</ele><time>2012-01-11T09:58:56Z</time></trkpt><trkpt lat="51.9654495455" lon="-2.0605510846"><ele>41.47</ele><time>2012-01-11T09:59:10Z</time></trkpt><trkpt lat="51.9652824104" lon="-2.0605101809"><ele>41.47</ele><time>2012-01-11T09:59:25Z</time></trkpt><trkpt lat="51.9651016127" lon="-2.0604240987"><ele>41.47</ele><time>2012-01-11T09:59:43Z</time></trkpt><trkpt lat="51.9648851920" lon="-2.0604204107"><ele>41.47</ele><time>2012-01-11T10:00:02Z</time></trkpt><trkpt lat="51.9647651631" lon="-2.0605687704"><ele>41.95</ele><time>2012-01-11T10:00:16Z</time></trkpt><trkpt lat="51.9647124410" lon="-2.0606685989"><ele>41.95</ele><time>2012-01-11T10:00:24Z</time></trkpt><trkpt lat="51.9646119419" lon="-2.0608682558"><ele>41.47</ele><time>2012-01-11T10:00:39Z</time></trkpt><trkpt lat="51.9645971898" lon="-2.0609141886"><ele>41.95</ele><time>2012-01-11T10:00:42Z</time></trkpt><trkpt lat="51.9645633269" lon="-2.0610313676"><ele>41.47</ele><time>2012-01-11T10:00:58Z</time></trkpt><trkpt lat="51.9645575434" lon="-2.0610595308"><ele>42.44</ele><time>2012-01-11T10:01:15Z</time></trkpt><trkpt lat="51.9645562023" lon="-2.0610684995"><ele>42.44</ele><time>2012-01-11T10:01:36Z</time></trkpt><trkpt lat="51.9645579625" lon="-2.0610746183"><ele>42.92</ele><time>2012-01-11T10:01:59Z</time></trkpt><trkpt lat="51.9645718765" lon="-2.0611837506"><ele>42.92</ele><time>2012-01-11T10:02:20Z</time></trkpt><trkpt lat="51.9645595551" lon="-2.0612975769"><ele>42.44</ele><time>2012-01-11T10:02:24Z</time></trkpt><trkpt lat="51.9645017199" lon="-2.0616509579"><ele>42.92</ele><time>2012-01-11T10:02:41Z</time></trkpt><trkpt lat="51.9644697011" lon="-2.0619214419"><ele>42.92</ele><time>2012-01-11T10:02:56Z</time></trkpt><trkpt lat="51.9644145481" lon="-2.0621922612"><ele>43.40</ele><time>2012-01-11T10:03:12Z</time></trkpt><trkpt lat="51.9643779192" lon="-2.0624331571"><ele>42.92</ele><time>2012-01-11T10:03:27Z</time></trkpt><trkpt lat="51.9643086847" lon="-2.0627646614"><ele>42.92</ele><time>2012-01-11T10:03:47Z</time></trkpt><trkpt lat="51.9642631710" lon="-2.0630254224"><ele>42.44</ele><time>2012-01-11T10:04:03Z</time></trkpt><trkpt lat="51.9642169029" lon="-2.0632511470"><ele>42.44</ele><time>2012-01-11T10:04:17Z</time></trkpt><trkpt lat="51.9641923439" lon="-2.0635960624"><ele>42.44</ele><time>2012-01-11T10:04:34Z</time></trkpt><trkpt lat="51.9641862251" lon="-2.0638224576"><ele>42.44</ele><time>2012-01-11T10:04:49Z</time></trkpt><trkpt lat="51.9641766697" lon="-2.0640961267"><ele>41.95</ele><time>2012-01-11T10:05:05Z</time></trkpt><trkpt lat="51.9641563855" lon="-2.0643503498"><ele>42.44</ele><time>2012-01-11T10:05:21Z</time></trkpt><trkpt lat="51.9641406275" lon="-2.0645570476"><ele>42.44</ele><time>2012-01-11T10:05:36Z</time></trkpt><trkpt lat="51.9641446508" lon="-2.0646209177"><ele>42.92</ele><time>2012-01-11T10:05:52Z</time></trkpt><trkpt lat="51.9641433936" lon="-2.0646233484"><ele>42.92</ele><time>2012-01-11T10:06:10Z</time></trkpt><trkpt lat="51.9641397055" lon="-2.0646241866"><ele>42.44</ele><time>2012-01-11T10:06:28Z</time></trkpt><trkpt lat="51.9641355146" lon="-2.0646350831"><ele>42.92</ele><time>2012-01-11T10:06:48Z</time></trkpt><trkpt lat="51.9641324133" lon="-2.0647628233"><ele>42.44</ele><time>2012-01-11T10:07:02Z</time></trkpt><trkpt lat="51.9641257077" lon="-2.0648995321"><ele>42.92</ele><time>2012-01-11T10:07:17Z</time></trkpt><trkpt lat="51.9641064294" lon="-2.0651522465"><ele>42.92</ele><time>2012-01-11T10:07:31Z</time></trkpt><trkpt lat="51.9640936051" lon="-2.0652472973"><ele>42.92</ele><time>2012-01-11T10:07:35Z</time></trkpt><trkpt lat="51.9640707225" lon="-2.0653087366"><ele>42.44</ele><time>2012-01-11T10:07:38Z</time></trkpt><trkpt lat="51.9639999792" lon="-2.0655938052"><ele>42.92</ele><time>2012-01-11T10:07:53Z</time></trkpt><trkpt lat="51.9639730733" lon="-2.0658572484"><ele>42.44</ele><time>2012-01-11T10:08:08Z</time></trkpt><trkpt lat="51.9639652781" lon="-2.0659694821"><ele>42.44</ele><time>2012-01-11T10:08:14Z</time></trkpt><trkpt lat="51.9639634341" lon="-2.0660507027"><ele>42.92</ele><time>2012-01-11T10:08:19Z</time></trkpt><trkpt lat="51.9639214408" lon="-2.0663597435"><ele>42.44</ele><time>2012-01-11T10:08:37Z</time></trkpt><trkpt lat="51.9639000669" lon="-2.0665220171"><ele>41.95</ele><time>2012-01-11T10:08:48Z</time></trkpt><trkpt lat="51.9638574030" lon="-2.0668228436"><ele>42.44</ele><time>2012-01-11T10:09:05Z</time></trkpt><trkpt lat="51.9638095424" lon="-2.0671612211"><ele>41.95</ele><time>2012-01-11T10:09:24Z</time></trkpt><trkpt lat="51.9637780264" lon="-2.0674339682"><ele>42.44</ele><time>2012-01-11T10:09:40Z</time></trkpt><trkpt lat="51.9637383800" lon="-2.0677266642"><ele>41.95</ele><time>2012-01-11T10:09:57Z</time></trkpt><trkpt lat="51.9637018349" lon="-2.0680544805"><ele>41.47</ele><time>2012-01-11T10:10:15Z</time></trkpt><trkpt lat="51.9636573270" lon="-2.0683997311"><ele>41.47</ele><time>2012-01-11T10:10:34Z</time></trkpt><trkpt lat="51.9636150822" lon="-2.0687161479"><ele>41.47</ele><time>2012-01-11T10:10:51Z</time></trkpt><trkpt lat="51.9635828957" lon="-2.0690388512"><ele>41.47</ele><time>2012-01-11T10:11:08Z</time></trkpt><trkpt lat="51.9635689817" lon="-2.0693431981"><ele>41.47</ele><time>2012-01-11T10:11:25Z</time></trkpt><trkpt lat="51.9635661319" lon="-2.0693868678"><ele>41.95</ele><time>2012-01-11T10:11:34Z</time></trkpt><trkpt lat="51.9635555707" lon="-2.0695134345"><ele>41.47</ele><time>2012-01-11T10:11:42Z</time></trkpt><trkpt lat="51.9635319337" lon="-2.0698163565"><ele>41.47</ele><time>2012-01-11T10:11:58Z</time></trkpt><trkpt lat="51.9635215402" lon="-2.0699024387"><ele>42.44</ele><time>2012-01-11T10:12:15Z</time></trkpt><trkpt lat="51.9635088835" lon="-2.0700298436"><ele>42.44</ele><time>2012-01-11T10:12:34Z</time></trkpt><trkpt lat="51.9634706620" lon="-2.0702319313"><ele>42.44</ele><time>2012-01-11T10:12:49Z</time></trkpt><trkpt lat="51.9633803051" lon="-2.0704347733"><ele>42.44</ele><time>2012-01-11T10:13:04Z</time></trkpt><trkpt lat="51.9633143395" lon="-2.0706040878"><ele>42.44</ele><time>2012-01-11T10:13:16Z</time></trkpt><trkpt lat="51.9632911216" lon="-2.0708226040"><ele>41.47</ele><time>2012-01-11T10:13:31Z</time></trkpt><trkpt lat="51.9632566720" lon="-2.0710611530"><ele>40.99</ele><time>2012-01-11T10:13:45Z</time></trkpt><trkpt lat="51.9631553348" lon="-2.0712697785"><ele>41.47</ele><time>2012-01-11T10:14:01Z</time></trkpt><trkpt lat="51.9630457833" lon="-2.0714618079"><ele>41.47</ele><time>2012-01-11T10:14:18Z</time></trkpt><trkpt lat="51.9629446976" lon="-2.0716885384"><ele>40.99</ele><time>2012-01-11T10:14:35Z</time></trkpt><trkpt lat="51.9628959149" lon="-2.0719048753"><ele>40.51</ele><time>2012-01-11T10:14:49Z</time></trkpt><trkpt lat="51.9628732838" lon="-2.0719474554"><ele>40.51</ele><time>2012-01-11T10:14:53Z</time></trkpt><trkpt lat="51.9627646543" lon="-2.0721062087"><ele>41.47</ele><time>2012-01-11T10:15:08Z</time></trkpt><trkpt lat="51.9627495669" lon="-2.0721979067"><ele>40.99</ele><time>2012-01-11T10:15:14Z</time></trkpt><trkpt lat="51.9627376646" lon="-2.0724144951"><ele>40.99</ele><time>2012-01-11T10:15:28Z</time></trkpt><trkpt lat="51.9627249241" lon="-2.0726128947"><ele>40.99</ele><time>2012-01-11T10:15:45Z</time></trkpt><trkpt lat="51.9627258461" lon="-2.0726372860"><ele>40.51</ele><time>2012-01-11T10:15:47Z</time></trkpt><trkpt lat="51.9627125189" lon="-2.0729274675"><ele>40.51</ele><time>2012-01-11T10:16:02Z</time></trkpt><trkpt lat="51.9626918156" lon="-2.0732256118"><ele>40.99</ele><time>2012-01-11T10:16:20Z</time></trkpt><trkpt lat="51.9626765605" lon="-2.0734743029"><ele>40.99</ele><time>2012-01-11T10:16:36Z</time></trkpt><trkpt lat="51.9626575336" lon="-2.0737055596"><ele>40.51</ele><time>2012-01-11T10:16:51Z</time></trkpt><trkpt lat="51.9626424462" lon="-2.0739265066"><ele>40.03</ele><time>2012-01-11T10:17:05Z</time></trkpt><trkpt lat="51.9626241736" lon="-2.0741894469"><ele>40.03</ele><time>2012-01-11T10:17:23Z</time></trkpt><trkpt lat="51.9626023807" lon="-2.0744912792"><ele>40.51</ele><time>2012-01-11T10:17:43Z</time></trkpt><trkpt lat="51.9625884667" lon="-2.0747906808"><ele>40.03</ele><time>2012-01-11T10:18:02Z</time></trkpt><trkpt lat="51.9625717029" lon="-2.0750392042"><ele>40.03</ele><time>2012-01-11T10:18:18Z</time></trkpt><trkpt lat="51.9625705294" lon="-2.0751168206"><ele>39.55</ele><time>2012-01-11T10:18:24Z</time></trkpt><trkpt lat="51.9625532627" lon="-2.0753690321"><ele>40.03</ele><time>2012-01-11T10:18:42Z</time></trkpt><trkpt lat="51.9625376724" lon="-2.0756971836"><ele>39.55</ele><time>2012-01-11T10:19:03Z</time></trkpt><trkpt lat="51.9625145383" lon="-2.0759939868"><ele>40.03</ele><time>2012-01-11T10:19:22Z</time></trkpt><trkpt lat="51.9625032227" lon="-2.0762544125"><ele>39.55</ele><time>2012-01-11T10:19:39Z</time></trkpt><trkpt lat="51.9624838606" lon="-2.0765479468"><ele>39.55</ele><time>2012-01-11T10:19:58Z</time></trkpt><trkpt lat="51.9624656718" lon="-2.0768206101"><ele>40.03</ele><time>2012-01-11T10:20:16Z</time></trkpt><trkpt lat="51.9624609780" lon="-2.0770610869"><ele>39.55</ele><time>2012-01-11T10:20:32Z</time></trkpt><trkpt lat="51.9624480698" lon="-2.0772064291"><ele>40.03</ele><time>2012-01-11T10:20:49Z</time></trkpt><trkpt lat="51.9624484889" lon="-2.0772156492"><ele>39.55</ele><time>2012-01-11T10:21:18Z</time></trkpt><trkpt lat="51.9624448009" lon="-2.0772307366"><ele>40.03</ele><time>2012-01-11T10:21:39Z</time></trkpt><trkpt lat="51.9624486566" lon="-2.0772773400"><ele>39.55</ele><time>2012-01-11T10:21:55Z</time></trkpt><trkpt lat="51.9624486566" lon="-2.0772773400"><ele>40.03</ele><time>2012-01-11T10:22:17Z</time></trkpt><trkpt lat="51.9624481536" lon="-2.0772793517"><ele>40.99</ele><time>2012-01-11T10:22:51Z</time></trkpt><trkpt lat="51.9624550268" lon="-2.0775375981"><ele>40.03</ele><time>2012-01-11T10:23:08Z</time></trkpt><trkpt lat="51.9624280371" lon="-2.0778091718"><ele>40.03</ele><time>2012-01-11T10:23:24Z</time></trkpt><trkpt lat="51.9624328986" lon="-2.0781269297"><ele>40.03</ele><time>2012-01-11T10:23:41Z</time></trkpt><trkpt lat="51.9624475669" lon="-2.0784103218"><ele>39.55</ele><time>2012-01-11T10:23:57Z</time></trkpt><trkpt lat="51.9624511711" lon="-2.0784843341"><ele>40.03</ele><time>2012-01-11T10:24:01Z</time></trkpt><trkpt lat="51.9624711201" lon="-2.0789144095"><ele>40.03</ele><time>2012-01-11T10:24:21Z</time></trkpt><trkpt lat="51.9624779094" lon="-2.0793030784"><ele>39.55</ele><time>2012-01-11T10:24:38Z</time></trkpt><trkpt lat="51.9624914043" lon="-2.0795405377"><ele>39.07</ele><time>2012-01-11T10:24:50Z</time></trkpt><trkpt lat="51.9624522608" lon="-2.0798380952"><ele>39.07</ele><time>2012-01-11T10:25:04Z</time></trkpt><trkpt lat="51.9624592178" lon="-2.0799431205"><ele>38.59</ele><time>2012-01-11T10:25:08Z</time></trkpt><trkpt lat="51.9624642469" lon="-2.0802788157"><ele>38.11</ele><time>2012-01-11T10:25:24Z</time></trkpt><trkpt lat="51.9624553621" lon="-2.0806461945"><ele>38.11</ele><time>2012-01-11T10:25:40Z</time></trkpt><trkpt lat="51.9624566194" lon="-2.0809870027"><ele>37.63</ele><time>2012-01-11T10:25:55Z</time></trkpt><trkpt lat="51.9624132011" lon="-2.0813870709"><ele>38.11</ele><time>2012-01-11T10:26:13Z</time></trkpt><trkpt lat="51.9623816013" lon="-2.0817246940"><ele>37.63</ele><time>2012-01-11T10:26:29Z</time></trkpt><trkpt lat="51.9623466488" lon="-2.0820433740"><ele>37.15</ele><time>2012-01-11T10:26:46Z</time></trkpt><trkpt lat="51.9623246044" lon="-2.0822722837"><ele>37.63</ele><time>2012-01-11T10:27:00Z</time></trkpt><trkpt lat="51.9622900710" lon="-2.0825372357"><ele>37.63</ele><time>2012-01-11T10:27:16Z</time></trkpt><trkpt lat="51.9622825272" lon="-2.0826463681"><ele>37.63</ele><time>2012-01-11T10:27:21Z</time></trkpt><trkpt lat="51.9622428808" lon="-2.0829388965"><ele>37.15</ele><time>2012-01-11T10:27:37Z</time></trkpt><trkpt lat="51.9622034021" lon="-2.0832921099"><ele>36.67</ele><time>2012-01-11T10:27:55Z</time></trkpt><trkpt lat="51.9621754065" lon="-2.0835005678"><ele>36.67</ele><time>2012-01-11T10:28:10Z</time></trkpt><trkpt lat="51.9621404540" lon="-2.0838013943"><ele>36.67</ele><time>2012-01-11T10:28:27Z</time></trkpt><trkpt lat="51.9621176552" lon="-2.0840494148"><ele>36.67</ele><time>2012-01-11T10:28:42Z</time></trkpt><trkpt lat="51.9621184096" lon="-2.0841283724"><ele>36.19</ele><time>2012-01-11T10:28:56Z</time></trkpt><trkpt lat="51.9621042442" lon="-2.0843982697"><ele>36.67</ele><time>2012-01-11T10:29:12Z</time></trkpt><trkpt lat="51.9620806910" lon="-2.0846415963"><ele>36.19</ele><time>2012-01-11T10:29:28Z</time></trkpt><trkpt lat="51.9620724767" lon="-2.0848950651"><ele>36.67</ele><time>2012-01-11T10:29:44Z</time></trkpt><trkpt lat="51.9620646816" lon="-2.0851544011"><ele>36.19</ele><time>2012-01-11T10:30:01Z</time></trkpt><trkpt lat="51.9620575570" lon="-2.0855032559"><ele>36.67</ele><time>2012-01-11T10:30:22Z</time></trkpt><trkpt lat="51.9620413799" lon="-2.0858289767"><ele>37.15</ele><time>2012-01-11T10:30:42Z</time></trkpt><trkpt lat="51.9620040804" lon="-2.0859491732"><ele>36.67</ele><time>2012-01-11T10:30:52Z</time></trkpt><trkpt lat="51.9618861470" lon="-2.0859300625"><ele>36.19</ele><time>2012-01-11T10:31:05Z</time></trkpt><trkpt lat="51.9618089497" lon="-2.0859055035"><ele>35.71</ele><time>2012-01-11T10:31:21Z</time></trkpt><trkpt lat="51.9617765117" lon="-2.0858936012"><ele>35.71</ele><time>2012-01-11T10:31:37Z</time></trkpt><trkpt lat="51.9617266394" lon="-2.0858612470"><ele>35.71</ele><time>2012-01-11T10:31:52Z</time></trkpt><trkpt lat="51.9615429919" lon="-2.0857659448"><ele>35.71</ele><time>2012-01-11T10:32:13Z</time></trkpt><trkpt lat="51.9614043552" lon="-2.0856859814"><ele>36.19</ele><time>2012-01-11T10:32:32Z</time></trkpt><trkpt lat="51.9612507988" lon="-2.0855865721"><ele>36.19</ele><time>2012-01-11T10:32:50Z</time></trkpt><trkpt lat="51.9610840827" lon="-2.0854860730"><ele>36.67</ele><time>2012-01-11T10:33:08Z</time></trkpt><trkpt lat="51.9609567616" lon="-2.0853885915"><ele>37.15</ele><time>2012-01-11T10:33:23Z</time></trkpt><trkpt lat="51.9608321227" lon="-2.0853032637"><ele>37.63</ele><time>2012-01-11T10:33:38Z</time></trkpt><trkpt lat="51.9607037958" lon="-2.0852124039"><ele>37.15</ele><time>2012-01-11T10:33:52Z</time></trkpt><trkpt lat="51.9605639856" lon="-2.0851418283"><ele>36.67</ele><time>2012-01-11T10:34:07Z</time></trkpt><trkpt lat="51.9604706950" lon="-2.0850357972"><ele>36.67</ele><time>2012-01-11T10:34:22Z</time></trkpt><trkpt lat="51.9604649115" lon="-2.0850357134"><ele>37.15</ele><time>2012-01-11T10:34:40Z</time></trkpt><trkpt lat="51.9604415260" lon="-2.0850331988"><ele>37.15</ele><time>2012-01-11T10:34:56Z</time></trkpt><trkpt lat="51.9604380894" lon="-2.0850502141"><ele>37.15</ele><time>2012-01-11T10:35:15Z</time></trkpt><trkpt lat="51.9603861216" lon="-2.0850908663"><ele>37.15</ele><time>2012-01-11T10:35:20Z</time></trkpt><trkpt lat="51.9603416137" lon="-2.0851134975"><ele>36.67</ele><time>2012-01-11T10:35:25Z</time></trkpt><trkpt lat="51.9602492452" lon="-2.0850695763"><ele>36.19</ele><time>2012-01-11T10:35:33Z</time></trkpt><trkpt lat="51.9602064975" lon="-2.0850543212"><ele>36.67</ele><time>2012-01-11T10:35:37Z</time></trkpt><trkpt lat="51.9601016399" lon="-2.0849518105"><ele>36.67</ele><time>2012-01-11T10:35:51Z</time></trkpt><trkpt lat="51.9600564614" lon="-2.0848773792"><ele>36.19</ele><time>2012-01-11T10:35:57Z</time></trkpt><trkpt lat="51.9599811919" lon="-2.0848099887"><ele>36.67</ele><time>2012-01-11T10:36:06Z</time></trkpt><trkpt lat="51.9598302338" lon="-2.0848114137"><ele>36.19</ele><time>2012-01-11T10:36:23Z</time></trkpt><trkpt lat="51.9596848078" lon="-2.0848206338"><ele>35.71</ele><time>2012-01-11T10:36:40Z</time></trkpt><trkpt lat="51.9596596621" lon="-2.0848164428"><ele>35.71</ele><time>2012-01-11T10:36:43Z</time></trkpt><trkpt lat="51.9595036749" lon="-2.0848033670"><ele>35.23</ele><time>2012-01-11T10:37:00Z</time></trkpt><trkpt lat="51.9593540579" lon="-2.0847789757"><ele>34.74</ele><time>2012-01-11T10:37:16Z</time></trkpt><trkpt lat="51.9592254795" lon="-2.0847737789"><ele>34.26</ele><time>2012-01-11T10:37:31Z</time></trkpt><trkpt lat="51.9590311870" lon="-2.0847628824"><ele>34.26</ele><time>2012-01-11T10:37:51Z</time></trkpt><trkpt lat="51.9588613696" lon="-2.0847573504"><ele>33.30</ele><time>2012-01-11T10:38:09Z</time></trkpt><trkpt lat="51.9587270916" lon="-2.0847520698"><ele>32.82</ele><time>2012-01-11T10:38:23Z</time></trkpt><trkpt lat="51.9585778099" lon="-2.0847519860"><ele>32.34</ele><time>2012-01-11T10:38:38Z</time></trkpt><trkpt lat="51.9584001135" lon="-2.0847317856"><ele>31.86</ele><time>2012-01-11T10:38:56Z</time></trkpt><trkpt lat="51.9582502451" lon="-2.0847259182"><ele>30.90</ele><time>2012-01-11T10:39:13Z</time></trkpt><trkpt lat="51.9581128657" lon="-2.0847219788"><ele>31.38</ele><time>2012-01-11T10:39:28Z</time></trkpt><trkpt lat="51.9580344949" lon="-2.0847168658"><ele>30.90</ele><time>2012-01-11T10:39:36Z</time></trkpt><trkpt lat="51.9578654319" lon="-2.0847008564"><ele>30.90</ele><time>2012-01-11T10:39:53Z</time></trkpt><trkpt lat="51.9577352609" lon="-2.0846907143"><ele>30.42</ele><time>2012-01-11T10:40:09Z</time></trkpt><trkpt lat="51.9575836323" lon="-2.0846281014"><ele>30.42</ele><time>2012-01-11T10:40:27Z</time></trkpt><trkpt lat="51.9575485121" lon="-2.0846049674"><ele>30.90</ele><time>2012-01-11T10:40:42Z</time></trkpt><trkpt lat="51.9575372804" lon="-2.0846034586"><ele>31.86</ele><time>2012-01-11T10:40:58Z</time></trkpt><trkpt lat="51.9574578200" lon="-2.0846011117"><ele>31.86</ele><time>2012-01-11T10:41:19Z</time></trkpt><trkpt lat="51.9574282318" lon="-2.0845195558"><ele>30.42</ele><time>2012-01-11T10:41:35Z</time></trkpt><trkpt lat="51.9574288186" lon="-2.0845084917"><ele>30.42</ele><time>2012-01-11T10:41:36Z</time></trkpt><trkpt lat="51.9574486837" lon="-2.0842748042"><ele>30.90</ele><time>2012-01-11T10:41:51Z</time></trkpt><trkpt lat="51.9574887492" lon="-2.0840200782"><ele>30.90</ele><time>2012-01-11T10:42:09Z</time></trkpt><trkpt lat="51.9575146493" lon="-2.0837821998"><ele>30.90</ele><time>2012-01-11T10:42:25Z</time></trkpt><trkpt lat="51.9575223606" lon="-2.0835435670"><ele>30.90</ele><time>2012-01-11T10:42:43Z</time></trkpt><trkpt lat="51.9575047586" lon="-2.0832130685"><ele>31.38</ele><time>2012-01-11T10:43:01Z</time></trkpt><trkpt lat="51.9574777689" lon="-2.0829834044"><ele>31.38</ele><time>2012-01-11T10:43:18Z</time></trkpt><trkpt lat="51.9574400503" lon="-2.0827658940"><ele>31.86</ele><time>2012-01-11T10:43:32Z</time></trkpt><trkpt lat="51.9574183412" lon="-2.0826487988"><ele>32.34</ele><time>2012-01-11T10:43:39Z</time></trkpt><trkpt lat="51.9574068580" lon="-2.0826047938"><ele>32.34</ele><time>2012-01-11T10:43:45Z</time></trkpt><trkpt lat="51.9573900104" lon="-2.0825360622"><ele>32.34</ele><time>2012-01-11T10:43:50Z</time></trkpt><trkpt lat="51.9572917745" lon="-2.0824015327"><ele>31.86</ele><time>2012-01-11T10:44:05Z</time></trkpt><trkpt lat="51.9571551494" lon="-2.0823908877"><ele>31.86</ele><time>2012-01-11T10:44:21Z</time></trkpt><trkpt lat="51.9570267387" lon="-2.0823918097"><ele>32.34</ele><time>2012-01-11T10:44:36Z</time></trkpt><trkpt lat="51.9568514731" lon="-2.0824114233"><ele>32.34</ele><time>2012-01-11T10:44:51Z</time></trkpt><trkpt lat="51.9566860143" lon="-2.0824636426"><ele>32.34</ele><time>2012-01-11T10:45:06Z</time></trkpt><trkpt lat="51.9565099943" lon="-2.0824949909"><ele>32.34</ele><time>2012-01-11T10:45:22Z</time></trkpt><trkpt lat="51.9564317912" lon="-2.0825327933"><ele>32.34</ele><time>2012-01-11T10:45:30Z</time></trkpt><trkpt lat="51.9563435297" lon="-2.0825830847"><ele>32.34</ele><time>2012-01-11T10:45:44Z</time></trkpt><trkpt lat="51.9563368242" lon="-2.0825945679"><ele>32.82</ele><time>2012-01-11T10:45:57Z</time></trkpt><trkpt lat="51.9563368242" lon="-2.0825945679"><ele>32.34</ele><time>2012-01-11T10:46:18Z</time></trkpt><trkpt lat="51.9563240837" lon="-2.0825960767"><ele>31.38</ele><time>2012-01-11T10:46:37Z</time></trkpt><trkpt lat="51.9563164562" lon="-2.0825851802"><ele>32.82</ele><time>2012-01-11T10:46:56Z</time></trkpt><trkpt lat="51.9562868681" lon="-2.0825518202"><ele>32.82</ele><time>2012-01-11T10:47:10Z</time></trkpt><trkpt lat="51.9562699366" lon="-2.0825135987"><ele>32.82</ele><time>2012-01-11T10:47:25Z</time></trkpt><trkpt lat="51.9562237523" lon="-2.0824612956"><ele>32.82</ele><time>2012-01-11T10:47:41Z</time></trkpt><trkpt lat="51.9561882969" lon="-2.0824121777"><ele>33.30</ele><time>2012-01-11T10:47:45Z</time></trkpt><trkpt lat="51.9560349919" lon="-2.0821764786"><ele>32.82</ele><time>2012-01-11T10:48:03Z</time></trkpt><trkpt lat="51.9559872989" lon="-2.0821107645"><ele>32.82</ele><time>2012-01-11T10:48:09Z</time></trkpt><trkpt lat="51.9558281265" lon="-2.0818976965"><ele>33.30</ele><time>2012-01-11T10:48:27Z</time></trkpt><trkpt lat="51.9557070918" lon="-2.0817238558"><ele>33.30</ele><time>2012-01-11T10:48:42Z</time></trkpt><trkpt lat="51.9556546211" lon="-2.0816034917"><ele>33.78</ele><time>2012-01-11T10:48:52Z</time></trkpt><trkpt lat="51.9556162320" lon="-2.0814745780"><ele>33.78</ele><time>2012-01-11T10:48:59Z</time></trkpt><trkpt lat="51.9556060899" lon="-2.0814264659"><ele>33.78</ele><time>2012-01-11T10:49:01Z</time></trkpt><trkpt lat="51.9555732328" lon="-2.0813456643"><ele>33.78</ele><time>2012-01-11T10:49:06Z</time></trkpt><trkpt lat="51.9555484224" lon="-2.0812790282"><ele>33.78</ele><time>2012-01-11T10:49:09Z</time></trkpt><trkpt lat="51.9554537069" lon="-2.0810547285"><ele>33.78</ele><time>2012-01-11T10:49:24Z</time></trkpt><trkpt lat="51.9554246217" lon="-2.0809837338"><ele>34.26</ele><time>2012-01-11T10:49:29Z</time></trkpt><trkpt lat="51.9554123841" lon="-2.0809490327"><ele>33.78</ele><time>2012-01-11T10:49:31Z</time></trkpt><trkpt lat="51.9553128071" lon="-2.0806872658"><ele>34.26</ele><time>2012-01-11T10:49:46Z</time></trkpt><trkpt lat="51.9552714005" lon="-2.0805859286"><ele>34.26</ele><time>2012-01-11T10:49:53Z</time></trkpt><trkpt lat="51.9551196042" lon="-2.0803323761"><ele>34.26</ele><time>2012-01-11T10:50:10Z</time></trkpt><trkpt lat="51.9549833983" lon="-2.0801652409"><ele>34.26</ele><time>2012-01-11T10:50:25Z</time></trkpt><trkpt lat="51.9549674727" lon="-2.0801489800"><ele>34.74</ele><time>2012-01-11T10:50:27Z</time></trkpt><trkpt lat="51.9549382199" lon="-2.0801029634"><ele>35.23</ele><time>2012-01-11T10:50:31Z</time></trkpt><trkpt lat="51.9548390619" lon="-2.0800362434"><ele>34.26</ele><time>2012-01-11T10:50:47Z</time></trkpt><trkpt lat="51.9548184425" lon="-2.0800319687"><ele>34.74</ele><time>2012-01-11T10:51:03Z</time></trkpt><trkpt lat="51.9547754433" lon="-2.0799693558"><ele>34.26</ele><time>2012-01-11T10:51:21Z</time></trkpt><trkpt lat="51.9547621161" lon="-2.0799504966"><ele>35.23</ele><time>2012-01-11T10:51:35Z</time></trkpt><trkpt lat="51.9547487050" lon="-2.0799387619"><ele>34.74</ele><time>2012-01-11T10:51:49Z</time></trkpt><trkpt lat="51.9546813983" lon="-2.0798463933"><ele>34.74</ele><time>2012-01-11T10:52:10Z</time></trkpt><trkpt lat="51.9546753634" lon="-2.0798392687"><ele>34.74</ele><time>2012-01-11T10:52:11Z</time></trkpt><trkpt lat="51.9546135888" lon="-2.0796469040"><ele>35.71</ele><time>2012-01-11T10:52:27Z</time></trkpt><trkpt lat="51.9546095654" lon="-2.0794745721"><ele>35.23</ele><time>2012-01-11T10:52:41Z</time></trkpt><trkpt lat="51.9546117447" lon="-2.0793781802"><ele>35.23</ele><time>2012-01-11T10:52:47Z</time></trkpt><trkpt lat="51.9545826595" lon="-2.0791201014"><ele>36.19</ele><time>2012-01-11T10:53:02Z</time></trkpt><trkpt lat="51.9545288477" lon="-2.0789336041"><ele>37.15</ele><time>2012-01-11T10:53:15Z</time></trkpt><trkpt lat="51.9544880278" lon="-2.0787112322"><ele>36.19</ele><time>2012-01-11T10:53:30Z</time></trkpt><trkpt lat="51.9544596132" lon="-2.0785893593"><ele>36.19</ele><time>2012-01-11T10:53:38Z</time></trkpt><trkpt lat="51.9544063043" lon="-2.0783248264"><ele>36.19</ele><time>2012-01-11T10:53:55Z</time></trkpt><trkpt lat="51.9543659035" lon="-2.0780961681"><ele>36.19</ele><time>2012-01-11T10:54:10Z</time></trkpt><trkpt lat="51.9543181267" lon="-2.0778840221"><ele>36.67</ele><time>2012-01-11T10:54:25Z</time></trkpt><trkpt lat="51.9542627223" lon="-2.0776324812"><ele>36.67</ele><time>2012-01-11T10:54:40Z</time></trkpt><trkpt lat="51.9542214833" lon="-2.0774186589"><ele>37.15</ele><time>2012-01-11T10:54:54Z</time></trkpt><trkpt lat="51.9541766401" lon="-2.0771928504"><ele>37.15</ele><time>2012-01-11T10:55:08Z</time></trkpt><trkpt lat="51.9541385025" lon="-2.0769496914"><ele>37.63</ele><time>2012-01-11T10:55:23Z</time></trkpt><trkpt lat="51.9541185535" lon="-2.0768621005"><ele>37.63</ele><time>2012-01-11T10:55:29Z</time></trkpt><trkpt lat="51.9541424420" lon="-2.0766159240"><ele>38.11</ele><time>2012-01-11T10:55:46Z</time></trkpt><trkpt lat="51.9541602954" lon="-2.0765818097"><ele>37.63</ele><time>2012-01-11T10:55:59Z</time></trkpt><trkpt lat="51.9541566074" lon="-2.0765896048"><ele>37.63</ele><time>2012-01-11T10:56:16Z</time></trkpt><trkpt lat="51.9541566074" lon="-2.0765896048"><ele>37.63</ele><time>2012-01-11T10:56:34Z</time></trkpt><trkpt lat="51.9541598763" lon="-2.0765395649"><ele>38.11</ele><time>2012-01-11T10:56:50Z</time></trkpt><trkpt lat="51.9541598763" lon="-2.0765395649"><ele>37.63</ele><time>2012-01-11T10:57:11Z</time></trkpt><trkpt lat="51.9541584514" lon="-2.0765371341"><ele>37.63</ele><time>2012-01-11T10:57:30Z</time></trkpt><trkpt lat="51.9541584514" lon="-2.0765371341"><ele>37.63</ele><time>2012-01-11T10:57:53Z</time></trkpt><trkpt lat="51.9541588705" lon="-2.0765378885"><ele>37.63</ele><time>2012-01-11T10:58:19Z</time></trkpt><trkpt lat="51.9541599602" lon="-2.0765406545"><ele>38.11</ele><time>2012-01-11T10:58:54Z</time></trkpt><trkpt lat="51.9541623071" lon="-2.0765279140"><ele>38.11</ele><time>2012-01-11T10:59:09Z</time></trkpt><trkpt lat="51.9541623071" lon="-2.0765279140"><ele>38.11</ele><time>2012-01-11T10:59:30Z</time></trkpt><trkpt lat="51.9541619718" lon="-2.0765293390"><ele>38.11</ele><time>2012-01-11T11:00:01Z</time></trkpt><trkpt lat="51.9541619718" lon="-2.0765293390"><ele>38.59</ele><time>2012-01-11T11:00:27Z</time></trkpt><trkpt lat="51.9541609660" lon="-2.0765310992"><ele>38.11</ele><time>2012-01-11T11:00:50Z</time></trkpt><trkpt lat="51.9541607983" lon="-2.0765300933"><ele>38.59</ele><time>2012-01-11T11:01:13Z</time></trkpt><trkpt lat="51.9541607983" lon="-2.0765300933"><ele>37.15</ele><time>2012-01-11T11:01:34Z</time></trkpt><trkpt lat="51.9541606307" lon="-2.0765306801"><ele>38.59</ele><time>2012-01-11T11:01:50Z</time></trkpt><trkpt lat="51.9541606307" lon="-2.0765306801"><ele>38.11</ele><time>2012-01-11T11:02:22Z</time></trkpt><trkpt lat="51.9541574456" lon="-2.0765221305"><ele>38.59</ele><time>2012-01-11T11:02:48Z</time></trkpt><trkpt lat="51.9541529194" lon="-2.0765212085"><ele>39.07</ele><time>2012-01-11T11:03:08Z</time></trkpt><trkpt lat="51.9541527517" lon="-2.0765483659"><ele>38.11</ele><time>2012-01-11T11:03:27Z</time></trkpt><trkpt lat="51.9541527517" lon="-2.0765483659"><ele>39.07</ele><time>2012-01-11T11:03:50Z</time></trkpt><trkpt lat="51.9541540928" lon="-2.0765812229"><ele>39.07</ele><time>2012-01-11T11:04:12Z</time></trkpt><trkpt lat="51.9541540928" lon="-2.0765812229"><ele>39.55</ele><time>2012-01-11T11:04:33Z</time></trkpt><trkpt lat="51.9541559368" lon="-2.0765746012"><ele>38.59</ele><time>2012-01-11T11:04:56Z</time></trkpt><trkpt lat="51.9541559368" lon="-2.0765746012"><ele>39.07</ele><time>2012-01-11T11:05:14Z</time></trkpt><trkpt lat="51.9541559368" lon="-2.0765739307"><ele>39.07</ele><time>2012-01-11T11:05:41Z</time></trkpt><trkpt lat="51.9541559368" lon="-2.0765739307"><ele>38.59</ele><time>2012-01-11T11:06:07Z</time></trkpt><trkpt lat="51.9541559368" lon="-2.0765722543"><ele>39.07</ele><time>2012-01-11T11:06:41Z</time></trkpt><trkpt lat="51.9541567750" lon="-2.0765714161"><ele>39.07</ele><time>2012-01-11T11:07:18Z</time></trkpt><trkpt lat="51.9541557692" lon="-2.0765714999"><ele>39.07</ele><time>2012-01-11T11:07:47Z</time></trkpt><trkpt lat="51.9541566074" lon="-2.0765698235"><ele>39.07</ele><time>2012-01-11T11:08:14Z</time></trkpt><trkpt lat="51.9541566074" lon="-2.0765698235"><ele>39.07</ele><time>2012-01-11T11:08:43Z</time></trkpt><trkpt lat="51.9541566912" lon="-2.0765699912"><ele>38.59</ele><time>2012-01-11T11:09:14Z</time></trkpt><trkpt lat="51.9541566912" lon="-2.0765755232"><ele>39.07</ele><time>2012-01-11T11:09:35Z</time></trkpt><trkpt lat="51.9541581161" lon="-2.0765771996"><ele>38.11</ele><time>2012-01-11T11:10:01Z</time></trkpt><trkpt lat="51.9541556016" lon="-2.0765778702"><ele>38.59</ele><time>2012-01-11T11:10:24Z</time></trkpt><trkpt lat="51.9541566074" lon="-2.0765756071"><ele>39.07</ele><time>2012-01-11T11:10:46Z</time></trkpt><trkpt lat="51.9541566074" lon="-2.0765756071"><ele>39.07</ele><time>2012-01-11T11:11:10Z</time></trkpt><trkpt lat="51.9541560207" lon="-2.0765763614"><ele>39.07</ele><time>2012-01-11T11:11:42Z</time></trkpt><trkpt lat="51.9541558530" lon="-2.0765763614"><ele>39.07</ele><time>2012-01-11T11:12:12Z</time></trkpt><trkpt lat="51.9541542605" lon="-2.0765755232"><ele>39.55</ele><time>2012-01-11T11:12:35Z</time></trkpt><trkpt lat="51.9541542605" lon="-2.0765755232"><ele>39.07</ele><time>2012-01-11T11:13:04Z</time></trkpt><trkpt lat="51.9541539252" lon="-2.0765766967"><ele>39.07</ele><time>2012-01-11T11:13:28Z</time></trkpt><trkpt lat="51.9541539252" lon="-2.0765766967"><ele>39.55</ele><time>2012-01-11T11:13:48Z</time></trkpt><trkpt lat="51.9541525003" lon="-2.0765733439"><ele>39.55</ele><time>2012-01-11T11:14:06Z</time></trkpt><trkpt lat="51.9541535061" lon="-2.0765522216"><ele>40.03</ele><time>2012-01-11T11:14:23Z</time></trkpt><trkpt lat="51.9541454595" lon="-2.0765462704"><ele>38.59</ele><time>2012-01-11T11:14:45Z</time></trkpt><trkpt lat="51.9541454595" lon="-2.0765462704"><ele>39.55</ele><time>2012-01-11T11:15:07Z</time></trkpt><trkpt lat="51.9541454595" lon="-2.0765462704"><ele>39.07</ele><time>2012-01-11T11:15:21Z</time></trkpt><trkpt lat="51.9541436993" lon="-2.0765274949"><ele>39.07</ele><time>2012-01-11T11:15:44Z</time></trkpt><trkpt lat="51.9540897198" lon="-2.0763591863"><ele>39.55</ele><time>2012-01-11T11:15:58Z</time></trkpt><trkpt lat="51.9539878797" lon="-2.0760673285"><ele>39.55</ele><time>2012-01-11T11:16:14Z</time></trkpt><trkpt lat="51.9538850337" lon="-2.0758000296"><ele>39.07</ele><time>2012-01-11T11:16:28Z</time></trkpt><trkpt lat="51.9537774101" lon="-2.0755121950"><ele>40.03</ele><time>2012-01-11T11:16:43Z</time></trkpt><trkpt lat="51.9536642544" lon="-2.0752180740"><ele>39.55</ele><time>2012-01-11T11:17:00Z</time></trkpt><trkpt lat="51.9536199979" lon="-2.0751121268"><ele>39.55</ele><time>2012-01-11T11:17:08Z</time></trkpt><trkpt lat="51.9536115322" lon="-2.0750684571"><ele>39.55</ele><time>2012-01-11T11:17:11Z</time></trkpt><trkpt lat="51.9535654318" lon="-2.0748126414"><ele>40.03</ele><time>2012-01-11T11:17:24Z</time></trkpt><trkpt lat="51.9535414595" lon="-2.0747177582"><ele>40.03</ele><time>2012-01-11T11:17:29Z</time></trkpt><trkpt lat="51.9534834567" lon="-2.0743936300"><ele>40.03</ele><time>2012-01-11T11:17:45Z</time></trkpt><trkpt lat="51.9534229394" lon="-2.0740956534"><ele>40.51</ele><time>2012-01-11T11:18:00Z</time></trkpt><trkpt lat="51.9533728994" lon="-2.0738081541"><ele>40.51</ele><time>2012-01-11T11:18:15Z</time></trkpt><trkpt lat="51.9533133041" lon="-2.0735461358"><ele>40.99</ele><time>2012-01-11T11:18:30Z</time></trkpt><trkpt lat="51.9532370288" lon="-2.0732750650"><ele>40.99</ele><time>2012-01-11T11:18:47Z</time></trkpt><trkpt lat="51.9531521201" lon="-2.0730339177"><ele>41.47</ele><time>2012-01-11T11:19:01Z</time></trkpt><trkpt lat="51.9530647807" lon="-2.0728007331"><ele>40.99</ele><time>2012-01-11T11:19:14Z</time></trkpt><trkpt lat="51.9530173391" lon="-2.0726319216"><ele>41.95</ele><time>2012-01-11T11:19:27Z</time></trkpt><trkpt lat="51.9529981446" lon="-2.0725553110"><ele>41.95</ele><time>2012-01-11T11:19:32Z</time></trkpt><trkpt lat="51.9529923610" lon="-2.0725042652"><ele>41.47</ele><time>2012-01-11T11:19:35Z</time></trkpt><trkpt lat="51.9529274851" lon="-2.0722572505"><ele>41.95</ele><time>2012-01-11T11:19:49Z</time></trkpt><trkpt lat="51.9528688956" lon="-2.0720055420"><ele>42.44</ele><time>2012-01-11T11:20:03Z</time></trkpt><trkpt lat="51.9527881779" lon="-2.0717735309"><ele>41.95</ele><time>2012-01-11T11:20:17Z</time></trkpt><trkpt lat="51.9526943006" lon="-2.0715528354"><ele>42.44</ele><time>2012-01-11T11:20:32Z</time></trkpt><trkpt lat="51.9526641257" lon="-2.0714963414"><ele>42.92</ele><time>2012-01-11T11:20:36Z</time></trkpt><trkpt lat="51.9526072964" lon="-2.0712567028"><ele>42.92</ele><time>2012-01-11T11:20:50Z</time></trkpt><trkpt lat="51.9525697455" lon="-2.0711153839"><ele>43.40</ele><time>2012-01-11T11:21:00Z</time></trkpt><trkpt lat="51.9525201246" lon="-2.0709872246"><ele>42.44</ele><time>2012-01-11T11:21:10Z</time></trkpt><trkpt lat="51.9524811488" lon="-2.0707715582"><ele>43.40</ele><time>2012-01-11T11:21:24Z</time></trkpt><trkpt lat="51.9524175301" lon="-2.0704555605"><ele>43.88</ele><time>2012-01-11T11:21:43Z</time></trkpt><trkpt lat="51.9523500558" lon="-2.0700964797"><ele>43.88</ele><time>2012-01-11T11:22:03Z</time></trkpt><trkpt lat="51.9522958249" lon="-2.0698239002"><ele>44.36</ele><time>2012-01-11T11:22:19Z</time></trkpt><trkpt lat="51.9522461202" lon="-2.0695075672"><ele>44.84</ele><time>2012-01-11T11:22:36Z</time></trkpt><trkpt lat="51.9522305299" lon="-2.0694563538"><ele>44.84</ele><time>2012-01-11T11:22:42Z</time></trkpt><trkpt lat="51.9522016961" lon="-2.0691930782"><ele>45.32</ele><time>2012-01-11T11:22:59Z</time></trkpt><trkpt lat="51.9521918055" lon="-2.0691417810"><ele>45.32</ele><time>2012-01-11T11:23:10Z</time></trkpt><trkpt lat="51.9521473814" lon="-2.0688851271"><ele>45.32</ele><time>2012-01-11T11:23:24Z</time></trkpt><trkpt lat="51.9520965032" lon="-2.0686145592"><ele>46.28</ele><time>2012-01-11T11:23:39Z</time></trkpt><trkpt lat="51.9520536717" lon="-2.0682975557"><ele>45.80</ele><time>2012-01-11T11:23:56Z</time></trkpt><trkpt lat="51.9520580303" lon="-2.0681576617"><ele>45.80</ele><time>2012-01-11T11:24:10Z</time></trkpt><trkpt lat="51.9520599581" lon="-2.0678579248"><ele>46.28</ele><time>2012-01-11T11:24:26Z</time></trkpt><trkpt lat="51.9520243350" lon="-2.0676948130"><ele>46.28</ele><time>2012-01-11T11:24:40Z</time></trkpt><trkpt lat="51.9520116784" lon="-2.0675316174"><ele>46.28</ele><time>2012-01-11T11:24:56Z</time></trkpt><trkpt lat="51.9520397577" lon="-2.0674762968"><ele>46.28</ele><time>2012-01-11T11:25:11Z</time></trkpt><trkpt lat="51.9520545937" lon="-2.0674632210"><ele>46.28</ele><time>2012-01-11T11:25:25Z</time></trkpt><trkpt lat="51.9520689268" lon="-2.0674248319"><ele>46.76</ele><time>2012-01-11T11:25:43Z</time></trkpt><trkpt lat="51.9520518277" lon="-2.0672977623"><ele>46.76</ele><time>2012-01-11T11:26:00Z</time></trkpt><trkpt lat="51.9520734530" lon="-2.0672193915"><ele>46.28</ele><time>2012-01-11T11:26:17Z</time></trkpt><trkpt lat="51.9521037117" lon="-2.0670841075"><ele>46.76</ele><time>2012-01-11T11:26:32Z</time></trkpt><trkpt lat="51.9521047175" lon="-2.0667401142"><ele>47.24</ele><time>2012-01-11T11:26:51Z</time></trkpt><trkpt lat="51.9520861097" lon="-2.0663704723"><ele>47.24</ele><time>2012-01-11T11:27:09Z</time></trkpt><trkpt lat="51.9520679209" lon="-2.0661304984"><ele>47.24</ele><time>2012-01-11T11:27:23Z</time></trkpt><trkpt lat="51.9520158693" lon="-2.0660017524"><ele>47.72</ele><time>2012-01-11T11:27:33Z</time></trkpt><trkpt lat="51.9519322179" lon="-2.0659016725"><ele>47.72</ele><time>2012-01-11T11:27:44Z</time></trkpt><trkpt lat="51.9518377539" lon="-2.0656210463"><ele>48.20</ele><time>2012-01-11T11:28:02Z</time></trkpt><trkpt lat="51.9517836906" lon="-2.0653276797"><ele>48.20</ele><time>2012-01-11T11:28:19Z</time></trkpt><trkpt lat="51.9517298788" lon="-2.0650575310"><ele>48.68</ele><time>2012-01-11T11:28:38Z</time></trkpt><trkpt lat="51.9517209940" lon="-2.0649296232"><ele>48.68</ele><time>2012-01-11T11:28:45Z</time></trkpt><trkpt lat="51.9516958483" lon="-2.0646707062"><ele>48.68</ele><time>2012-01-11T11:29:01Z</time></trkpt><trkpt lat="51.9516763184" lon="-2.0645886473"><ele>48.68</ele><time>2012-01-11T11:29:06Z</time></trkpt><trkpt lat="51.9516239315" lon="-2.0642904192"><ele>48.68</ele><time>2012-01-11T11:29:23Z</time></trkpt><trkpt lat="51.9516496640" lon="-2.0641469210"><ele>49.65</ele><time>2012-01-11T11:29:36Z</time></trkpt><trkpt lat="51.9517447986" lon="-2.0640071109"><ele>49.65</ele><time>2012-01-11T11:29:52Z</time></trkpt><trkpt lat="51.9518622290" lon="-2.0639427379"><ele>49.65</ele><time>2012-01-11T11:30:07Z</time></trkpt><trkpt lat="51.9520022906" lon="-2.0638823044"><ele>49.16</ele><time>2012-01-11T11:30:24Z</time></trkpt><trkpt lat="51.9520329684" lon="-2.0638695639"><ele>49.16</ele><time>2012-01-11T11:30:28Z</time></trkpt><trkpt lat="51.9521368202" lon="-2.0638123993"><ele>49.16</ele><time>2012-01-11T11:30:41Z</time></trkpt><trkpt lat="51.9522989262" lon="-2.0637577493"><ele>49.16</ele><time>2012-01-11T11:30:56Z</time></trkpt><trkpt lat="51.9524080586" lon="-2.0636797138"><ele>49.16</ele><time>2012-01-11T11:31:16Z</time></trkpt><trkpt lat="51.9525768701" lon="-2.0636388101"><ele>48.68</ele><time>2012-01-11T11:31:35Z</time></trkpt><trkpt lat="51.9526297599" lon="-2.0636177715"><ele>48.68</ele><time>2012-01-11T11:31:50Z</time></trkpt><trkpt lat="51.9527026825" lon="-2.0635751914"><ele>48.68</ele><time>2012-01-11T11:31:57Z</time></trkpt><trkpt lat="51.9527823105" lon="-2.0635440946"><ele>48.68</ele><time>2012-01-11T11:32:06Z</time></trkpt><trkpt lat="51.9528144971" lon="-2.0635212958"><ele>48.20</ele><time>2012-01-11T11:32:09Z</time></trkpt><trkpt lat="51.9529253896" lon="-2.0633529034"><ele>47.72</ele><time>2012-01-11T11:32:24Z</time></trkpt><trkpt lat="51.9529781956" lon="-2.0632408373"><ele>48.68</ele><time>2012-01-11T11:32:37Z</time></trkpt><trkpt lat="51.9529895950" lon="-2.0630153641"><ele>48.20</ele><time>2012-01-11T11:32:52Z</time></trkpt><trkpt lat="51.9529771060" lon="-2.0627610572"><ele>48.68</ele><time>2012-01-11T11:33:08Z</time></trkpt><trkpt lat="51.9529717416" lon="-2.0625316445"><ele>48.68</ele><time>2012-01-11T11:33:22Z</time></trkpt><trkpt lat="51.9529714063" lon="-2.0624903217"><ele>48.68</ele><time>2012-01-11T11:33:24Z</time></trkpt><trkpt lat="51.9529752620" lon="-2.0622086897"><ele>49.16</ele><time>2012-01-11T11:33:41Z</time></trkpt><trkpt lat="51.9529543072" lon="-2.0619190112"><ele>48.68</ele><time>2012-01-11T11:33:59Z</time></trkpt><trkpt lat="51.9529585820" lon="-2.0616956335"><ele>48.68</ele><time>2012-01-11T11:34:12Z</time></trkpt><trkpt lat="51.9529579952" lon="-2.0614554081"><ele>49.16</ele><time>2012-01-11T11:34:27Z</time></trkpt><trkpt lat="51.9529698975" lon="-2.0612800587"><ele>49.65</ele><time>2012-01-11T11:34:38Z</time></trkpt><trkpt lat="51.9529738370" lon="-2.0611213055"><ele>50.13</ele><time>2012-01-11T11:34:47Z</time></trkpt><trkpt lat="51.9529848173" lon="-2.0610740315"><ele>50.13</ele><time>2012-01-11T11:34:50Z</time></trkpt><trkpt lat="51.9530014973" lon="-2.0608520787"><ele>51.09</ele><time>2012-01-11T11:35:04Z</time></trkpt><trkpt lat="51.9529803749" lon="-2.0605642442"><ele>51.09</ele><time>2012-01-11T11:35:19Z</time></trkpt><trkpt lat="51.9529885054" lon="-2.0603694487"><ele>51.57</ele><time>2012-01-11T11:35:32Z</time></trkpt><trkpt lat="51.9529974740" lon="-2.0603225939"><ele>52.05</ele><time>2012-01-11T11:35:47Z</time></trkpt><trkpt lat="51.9530298281" lon="-2.0602562092"><ele>52.05</ele><time>2012-01-11T11:36:00Z</time></trkpt><trkpt lat="51.9530294091" lon="-2.0600295626"><ele>52.05</ele><time>2012-01-11T11:36:13Z</time></trkpt><trkpt lat="51.9530167524" lon="-2.0598327555"><ele>53.01</ele><time>2012-01-11T11:36:26Z</time></trkpt><trkpt lat="51.9530388806" lon="-2.0596061088"><ele>53.49</ele><time>2012-01-11T11:36:40Z</time></trkpt><trkpt lat="51.9530715700" lon="-2.0594849065"><ele>53.01</ele><time>2012-01-11T11:36:53Z</time></trkpt><trkpt lat="51.9530958775" lon="-2.0594661310"><ele>53.01</ele><time>2012-01-11T11:37:07Z</time></trkpt><trkpt lat="51.9531933591" lon="-2.0594072063"><ele>53.01</ele><time>2012-01-11T11:37:21Z</time></trkpt><trkpt lat="51.9532643538" lon="-2.0593756065"><ele>53.49</ele><time>2012-01-11T11:37:35Z</time></trkpt><trkpt lat="51.9532643538" lon="-2.0593756065"><ele>53.01</ele><time>2012-01-11T11:37:51Z</time></trkpt><trkpt lat="51.9533767551" lon="-2.0593419950"><ele>53.49</ele><time>2012-01-11T11:38:05Z</time></trkpt><trkpt lat="51.9534452353" lon="-2.0593495388"><ele>53.97</ele><time>2012-01-11T11:38:16Z</time></trkpt><trkpt lat="51.9535308145" lon="-2.0595336054"><ele>53.01</ele><time>2012-01-11T11:38:29Z</time></trkpt><trkpt lat="51.9535360951" lon="-2.0595675521"><ele>53.01</ele><time>2012-01-11T11:38:31Z</time></trkpt><trkpt lat="51.9535849616" lon="-2.0597190131"><ele>52.53</ele><time>2012-01-11T11:38:42Z</time></trkpt><trkpt lat="51.9536349177" lon="-2.0599203464"><ele>52.53</ele><time>2012-01-11T11:38:54Z</time></trkpt><trkpt lat="51.9536837842" lon="-2.0600728132"><ele>52.53</ele><time>2012-01-11T11:39:07Z</time></trkpt><trkpt lat="51.9537099358" lon="-2.0600959472"><ele>52.53</ele><time>2012-01-11T11:39:22Z</time></trkpt><trkpt lat="51.9537256937" lon="-2.0601014793"><ele>52.53</ele><time>2012-01-11T11:39:43Z</time></trkpt><trkpt lat="51.9537774939" lon="-2.0600981265"><ele>52.53</ele><time>2012-01-11T11:40:01Z</time></trkpt><trkpt lat="51.9537973590" lon="-2.0601004735"><ele>52.53</ele><time>2012-01-11T11:40:03Z</time></trkpt><trkpt lat="51.9538795017" lon="-2.0600805245"><ele>52.53</ele><time>2012-01-11T11:40:11Z</time></trkpt><trkpt lat="51.9539327268" lon="-2.0600602403"><ele>52.53</ele><time>2012-01-11T11:40:24Z</time></trkpt><trkpt lat="51.9539914839" lon="-2.0600478351"><ele>52.53</ele><time>2012-01-11T11:40:39Z</time></trkpt><trkpt lat="51.9540434517" lon="-2.0600306522"><ele>52.53</ele><time>2012-01-11T11:40:44Z</time></trkpt><trkpt lat="51.9541948289" lon="-2.0599991363"><ele>53.01</ele><time>2012-01-11T11:40:58Z</time></trkpt><trkpt lat="51.9543907978" lon="-2.0599366073"><ele>52.53</ele><time>2012-01-11T11:41:17Z</time></trkpt><trkpt lat="51.9546062127" lon="-2.0598729048"><ele>53.01</ele><time>2012-01-11T11:41:37Z</time></trkpt><trkpt lat="51.9548170175" lon="-2.0598133933"><ele>53.49</ele><time>2012-01-11T11:41:56Z</time></trkpt><trkpt lat="51.9549570791" lon="-2.0597939473"><ele>53.97</ele><time>2012-01-11T11:42:09Z</time></trkpt><trkpt lat="51.9551828876" lon="-2.0597269759"><ele>53.97</ele><time>2012-01-11T11:42:31Z</time></trkpt><trkpt lat="51.9554029964" lon="-2.0596629381"><ele>53.97</ele><time>2012-01-11T11:42:52Z</time></trkpt><trkpt lat="51.9556081854" lon="-2.0596063603"><ele>54.45</ele><time>2012-01-11T11:43:12Z</time></trkpt><trkpt lat="51.9556581415" lon="-2.0596012473"><ele>53.97</ele><time>2012-01-11T11:43:17Z</time></trkpt><trkpt lat="51.9558387715" lon="-2.0595536381"><ele>54.45</ele><time>2012-01-11T11:43:34Z</time></trkpt><trkpt lat="51.9560287893" lon="-2.0595187694"><ele>53.49</ele><time>2012-01-11T11:43:51Z</time></trkpt><trkpt lat="51.9562387560" lon="-2.0594770275"><ele>52.53</ele><time>2012-01-11T11:44:10Z</time></trkpt><trkpt lat="51.9564120937" lon="-2.0594379678"><ele>52.53</ele><time>2012-01-11T11:44:26Z</time></trkpt><trkpt lat="51.9565871079" lon="-2.0593746845"><ele>53.49</ele><time>2012-01-11T11:44:45Z</time></trkpt><trkpt lat="51.9567553326" lon="-2.0594003331"><ele>53.49</ele><time>2012-01-11T11:45:01Z</time></trkpt><trkpt lat="51.9569282513" lon="-2.0594145823"><ele>54.45</ele><time>2012-01-11T11:45:18Z</time></trkpt><trkpt lat="51.9570875913" lon="-2.0594484452"><ele>54.93</ele><time>2012-01-11T11:45:34Z</time></trkpt><trkpt lat="51.9572677184" lon="-2.0594773628"><ele>54.93</ele><time>2012-01-11T11:45:51Z</time></trkpt><trkpt lat="51.9574400503" lon="-2.0595097169"><ele>54.93</ele><time>2012-01-11T11:46:08Z</time></trkpt><trkpt lat="51.9576024078" lon="-2.0595419034"><ele>54.45</ele><time>2012-01-11T11:46:24Z</time></trkpt><trkpt lat="51.9577497616" lon="-2.0595826395"><ele>54.93</ele><time>2012-01-11T11:46:41Z</time></trkpt><trkpt lat="51.9577763323" lon="-2.0595826395"><ele>55.41</ele><time>2012-01-11T11:46:57Z</time></trkpt><trkpt lat="51.9577763323" lon="-2.0595826395"><ele>55.41</ele><time>2012-01-11T11:47:17Z</time></trkpt><trkpt lat="51.9578831177" lon="-2.0596112218"><ele>54.45</ele><time>2012-01-11T11:47:32Z</time></trkpt><trkpt lat="51.9580857083" lon="-2.0596465096"><ele>53.97</ele><time>2012-01-11T11:47:51Z</time></trkpt><trkpt lat="51.9582597166" lon="-2.0596756786"><ele>53.01</ele><time>2012-01-11T11:48:09Z</time></trkpt><trkpt lat="51.9583178870" lon="-2.0596840605"><ele>53.01</ele><time>2012-01-11T11:48:28Z</time></trkpt><trkpt lat="51.9583178870" lon="-2.0596840605"><ele>52.53</ele><time>2012-01-11T11:48:51Z</time></trkpt><trkpt lat="51.9583215751" lon="-2.0596860722"><ele>53.49</ele><time>2012-01-11T11:49:10Z</time></trkpt><trkpt lat="51.9584644027" lon="-2.0597142354"><ele>53.49</ele><time>2012-01-11T11:49:26Z</time></trkpt><trkpt lat="51.9585964177" lon="-2.0597393811"><ele>53.49</ele><time>2012-01-11T11:49:42Z</time></trkpt><trkpt lat="51.9587620441" lon="-2.0597418956"><ele>54.45</ele><time>2012-01-11T11:50:01Z</time></trkpt><trkpt lat="51.9589648861" lon="-2.0597449131"><ele>55.41</ele><time>2012-01-11T11:50:23Z</time></trkpt><trkpt lat="51.9591206219" lon="-2.0597319212"><ele>55.89</ele><time>2012-01-11T11:50:40Z</time></trkpt><trkpt lat="51.9592907745" lon="-2.0597181749"><ele>56.37</ele><time>2012-01-11T11:50:58Z</time></trkpt><trkpt lat="51.9594942033" lon="-2.0596984774"><ele>56.86</ele><time>2012-01-11T11:51:23Z</time></trkpt><trkpt lat="51.9597211014" lon="-2.0596845634"><ele>56.86</ele><time>2012-01-11T11:51:43Z</time></trkpt><trkpt lat="51.9598269649" lon="-2.0596655365"><ele>57.34</ele><time>2012-01-11T11:51:56Z</time></trkpt><trkpt lat="51.9598578941" lon="-2.0596673805"><ele>57.34</ele><time>2012-01-11T11:51:59Z</time></trkpt><trkpt lat="51.9601069205" lon="-2.0596553106"><ele>57.34</ele><time>2012-01-11T11:52:22Z</time></trkpt><trkpt lat="51.9603365008" lon="-2.0596678834"><ele>57.82</ele><time>2012-01-11T11:52:44Z</time></trkpt><trkpt lat="51.9605520833" lon="-2.0597082842"><ele>57.82</ele><time>2012-01-11T11:53:08Z</time></trkpt><trkpt lat="51.9606773090" lon="-2.0597443264"><ele>57.82</ele><time>2012-01-11T11:53:21Z</time></trkpt><trkpt lat="51.9608744513" lon="-2.0597720705"><ele>58.78</ele><time>2012-01-11T11:53:39Z</time></trkpt><trkpt lat="51.9610988349" lon="-2.0598069392"><ele>57.82</ele><time>2012-01-11T11:53:58Z</time></trkpt><trkpt lat="51.9612490386" lon="-2.0598027483"><ele>58.30</ele><time>2012-01-11T11:54:14Z</time></trkpt><trkpt lat="51.9613844063" lon="-2.0598119684"><ele>58.30</ele><time>2012-01-11T11:54:30Z</time></trkpt><trkpt lat="51.9614289142" lon="-2.0598401316"><ele>57.34</ele><time>2012-01-11T11:54:49Z</time></trkpt><trkpt lat="51.9614839833" lon="-2.0599463303"><ele>57.82</ele><time>2012-01-11T11:55:04Z</time></trkpt><trkpt lat="51.9614812173" lon="-2.0599648543"><ele>57.34</ele><time>2012-01-11T11:55:17Z</time></trkpt><trkpt lat="51.9615047704" lon="-2.0601187460"><ele>57.34</ele><time>2012-01-11T11:55:26Z</time></trkpt><trkpt lat="51.9615176786" lon="-2.0602015592"><ele>57.82</ele><time>2012-01-11T11:55:30Z</time></trkpt><trkpt lat="51.9615788665" lon="-2.0602719672"><ele>57.82</ele><time>2012-01-11T11:55:43Z</time></trkpt><trkpt lat="51.9615788665" lon="-2.0602719672"><ele>57.82</ele><time>2012-01-11T11:56:01Z</time></trkpt><trkpt lat="51.9615786150" lon="-2.0602730568"><ele>57.82</ele><time>2012-01-11T11:56:27Z</time></trkpt><trkpt lat="51.9615991507" lon="-2.0602804329"><ele>57.82</ele><time>2012-01-11T11:56:46Z</time></trkpt><trkpt lat="51.9616492745" lon="-2.0603187382"><ele>57.82</ele><time>2012-01-11T11:56:50Z</time></trkpt><trkpt lat="51.9616862386" lon="-2.0603354182"><ele>57.82</ele><time>2012-01-11T11:57:05Z</time></trkpt><trkpt lat="51.9616991468" lon="-2.0603531040"><ele>58.30</ele><time>2012-01-11T11:57:21Z</time></trkpt><trkpt lat="51.9617898390" lon="-2.0603712928"><ele>58.30</ele><time>2012-01-11T11:57:36Z</time></trkpt><trkpt lat="51.9619469158" lon="-2.0604400244"><ele>58.30</ele><time>2012-01-11T11:57:53Z</time></trkpt><trkpt lat="51.9621100277" lon="-2.0604977757"><ele>58.78</ele><time>2012-01-11T11:58:09Z</time></trkpt><trkpt lat="51.9622109458" lon="-2.0605349913"><ele>58.78</ele><time>2012-01-11T11:58:22Z</time></trkpt><trkpt lat="51.9623737223" lon="-2.0605689380"><ele>58.78</ele><time>2012-01-11T11:58:41Z</time></trkpt><trkpt lat="51.9625017978" lon="-2.0606078301"><ele>58.78</ele><time>2012-01-11T11:58:57Z</time></trkpt><trkpt lat="51.9626222458" lon="-2.0606380887"><ele>58.78</ele><time>2012-01-11T11:59:16Z</time></trkpt><trkpt lat="51.9627249241" lon="-2.0606780704"><ele>58.78</ele><time>2012-01-11T11:59:30Z</time></trkpt><trkpt lat="51.9629036263" lon="-2.0606503263"><ele>59.26</ele><time>2012-01-11T11:59:42Z</time></trkpt><trkpt lat="51.9629408419" lon="-2.0603849553"><ele>58.78</ele><time>2012-01-11T12:00:01Z</time></trkpt><trkpt lat="51.9629576057" lon="-2.0603574626"><ele>59.26</ele><time>2012-01-11T12:00:20Z</time></trkpt><trkpt lat="51.9629576057" lon="-2.0603574626"><ele>59.26</ele><time>2012-01-11T12:00:45Z</time></trkpt><trkpt lat="51.9629667420" lon="-2.0603656769"><ele>58.30</ele><time>2012-01-11T12:01:02Z</time></trkpt><trkpt lat="51.9629667420" lon="-2.0603656769"><ele>58.30</ele><time>2012-01-11T12:01:28Z</time></trkpt><trkpt lat="51.9629704300" lon="-2.0603712089"><ele>58.30</ele><time>2012-01-11T12:01:58Z</time></trkpt><trkpt lat="51.9630642235" lon="-2.0603981148"><ele>58.30</ele><time>2012-01-11T12:02:11Z</time></trkpt><trkpt lat="51.9631216396" lon="-2.0604136214"><ele>58.30</ele><time>2012-01-11T12:02:25Z</time></trkpt><trkpt lat="51.9632760342" lon="-2.0604997035"><ele>57.82</ele><time>2012-01-11T12:02:42Z</time></trkpt><trkpt lat="51.9635220431" lon="-2.0605553593"><ele>57.82</ele><time>2012-01-11T12:03:01Z</time></trkpt><trkpt lat="51.9635426626" lon="-2.0605599694"><ele>58.30</ele><time>2012-01-11T12:03:14Z</time></trkpt><trkpt lat="51.9636381324" lon="-2.0606012922"><ele>58.30</ele><time>2012-01-11T12:03:30Z</time></trkpt><trkpt lat="51.9636921957" lon="-2.0606194809"><ele>58.30</ele><time>2012-01-11T12:03:35Z</time></trkpt><trkpt lat="51.9638418965" lon="-2.0606691018"><ele>58.30</ele><time>2012-01-11T12:03:50Z</time></trkpt><trkpt lat="51.9639817905" lon="-2.0606938284"><ele>58.30</ele><time>2012-01-11T12:04:08Z</time></trkpt><trkpt lat="51.9640721474" lon="-2.0605582092"><ele>58.30</ele><time>2012-01-11T12:04:23Z</time></trkpt><trkpt lat="51.9641457405" lon="-2.0603326522"><ele>57.82</ele><time>2012-01-11T12:04:41Z</time></trkpt><trkpt lat="51.9642056711" lon="-2.0603019744"><ele>58.30</ele><time>2012-01-11T12:04:54Z</time></trkpt><trkpt lat="51.9643958565" lon="-2.0603720471"><ele>57.34</ele><time>2012-01-11T12:05:13Z</time></trkpt><trkpt lat="51.9646366686" lon="-2.0604024734"><ele>56.86</ele><time>2012-01-11T12:05:34Z</time></trkpt><trkpt lat="51.9646599703" lon="-2.0604335703"><ele>57.82</ele><time>2012-01-11T12:05:39Z</time></trkpt><trkpt lat="51.9646598864" lon="-2.0604879688"><ele>57.82</ele><time>2012-01-11T12:05:41Z</time></trkpt><trkpt lat="51.9647588767" lon="-2.0605216641"><ele>56.86</ele><time>2012-01-11T12:05:58Z</time></trkpt><trkpt lat="51.9649033807" lon="-2.0604338218"><ele>56.37</ele><time>2012-01-11T12:06:15Z</time></trkpt><trkpt lat="51.9650046341" lon="-2.0603913255"><ele>56.86</ele><time>2012-01-11T12:06:31Z</time></trkpt><trkpt lat="51.9651621301" lon="-2.0604486577"><ele>56.86</ele><time>2012-01-11T12:06:48Z</time></trkpt><trkpt lat="51.9653197099" lon="-2.0604659244"><ele>56.86</ele><time>2012-01-11T12:07:03Z</time></trkpt><trkpt lat="51.9654855039" lon="-2.0605074149"><ele>56.86</ele><time>2012-01-11T12:07:18Z</time></trkpt><trkpt lat="51.9656322710" lon="-2.0605423674"><ele>56.86</ele><time>2012-01-11T12:07:32Z</time></trkpt><trkpt lat="51.9657590892" lon="-2.0606185589"><ele>56.37</ele><time>2012-01-11T12:07:49Z</time></trkpt><trkpt lat="51.9657983165" lon="-2.0607067365"><ele>56.37</ele><time>2012-01-11T12:07:55Z</time></trkpt><trkpt lat="51.9658159185" lon="-2.0607676730"><ele>55.89</ele><time>2012-01-11T12:08:12Z</time></trkpt><trkpt lat="51.9658020884" lon="-2.0608357340"><ele>56.37</ele><time>2012-01-11T12:08:31Z</time></trkpt><trkpt lat="51.9657616038" lon="-2.0608754642"><ele>56.37</ele><time>2012-01-11T12:08:35Z</time></trkpt><trkpt lat="51.9656179380" lon="-2.0609542541"><ele>57.34</ele><time>2012-01-11T12:08:49Z</time></trkpt><trkpt lat="51.9656143337" lon="-2.0609507337"><ele>57.34</ele><time>2012-01-11T12:09:08Z</time></trkpt></trkseg></trk></gpx>